CYQF

Details ICAO CYQF (YQF)
Name RED DEER REGIONAL
Region Canada
Timezone America/Edmonton (UTC-7.0)
Plans Departing 18
Arriving 15
Stats Elevation 2,968 ft / 905 m (AMSL)
Location 52.182568° -113.893686°
Runways 2
Magnetic Variation 14.254° E
Sunrise 2017-12-15 15:39:58 UTC / 2017-12-15 08:39:58 Local
Sunset 2017-12-15 23:24:34 UTC / 2017-12-15 16:24:34 Local
Advertisement - Login to hide

Runways

ID Width Length Bearing (true) Bearing (mag) Surface Threshold Offset Overrun Length
11 100 ft / 30 m 3,480 ft / 1,061 m 129.84° 115.59° Asphalt 0 ft / 0 m 0 ft / 0 m
16 98 ft / 30 m 5,575 ft / 1,699 m 180.00° 165.75° Asphalt 0 ft / 0 m 0 ft / 0 m
29 100 ft / 30 m 3,480 ft / 1,061 m 309.85° 295.60° Asphalt 0 ft / 0 m 0 ft / 0 m
34 98 ft / 30 m 5,575 ft / 1,699 m 0.00° 345.75° Asphalt 0 ft / 0 m 0 ft / 0 m

Map

Weather


0- 5 10 15 20 25 30 35+ Temperature / ° C

Clouds and Precipitation
Forecast for 2017-12-16 00:00 UTC. Updated 38 minutes ago

Ground ~20,000 ft ~40,000 ft Winds

METAR

CYQF 151900Z 31012KT 15SM FEW010 SCT025 BKN060 03/00 A2971 RMK SF1SC3SC4 SF TR VIRGA SLP102

TAF

TAF CYQF 151745Z 1518/1606 29006KT P6SM SCT060 BKN120 TEMPO 1518/1520 P6SM -SHRASN BKN060 BECMG 1518/1520 31012G22KT FM152200 32012G22KT P6SM SKC BECMG 1601/1603 28010KT RMK NXT FCST BY 160000Z

Frequencies

Recorded 124.00 MHz ATIS
Tower 118.50 MHz MF RED DEER RDO
Warning: Do not use this data for real-world aviation or navigation. No guarantee of current accuracy is given.